sensor_id;sensor_type;location;lat;lon;timestamp;temperature;humidity
12446;DHT22;6287;50.984;7.022;2022-09-03T00:00:18;18.10;64.00
12446;DHT22;6287;50.984;7.022;2022-09-03T00:05:48;18.00;64.60
12446;DHT22;6287;50.984;7.022;2022-09-03T00:08:41;18.00;64.20
12446;DHT22;6287;50.984;7.022;2022-09-03T00:14:03;18.00;64.30
12446;DHT22;6287;50.984;7.022;2022-09-03T00:16:45;17.90;64.70
12446;DHT22;6287;50.984;7.022;2022-09-03T00:19:21;17.90;65.20
12446;DHT22;6287;50.984;7.022;2022-09-03T00:22:06;17.90;65.50
12446;DHT22;6287;50.984;7.022;2022-09-03T00:24:39;17.90;65.60
12446;DHT22;6287;50.984;7.022;2022-09-03T00:27:12;17.90;65.60
12446;DHT22;6287;50.984;7.022;2022-09-03T00:29:45;17.80;65.80
12446;DHT22;6287;50.984;7.022;2022-09-03T00:32:22;17.80;65.80
12446;DHT22;6287;50.984;7.022;2022-09-03T00:34:56;17.80;66.10
12446;DHT22;6287;50.984;7.022;2022-09-03T00:37:28;17.70;66.50
12446;DHT22;6287;50.984;7.022;2022-09-03T00:39:56;17.80;66.70
12446;DHT22;6287;50.984;7.022;2022-09-03T00:43:24;17.70;66.70
12446;DHT22;6287;50.984;7.022;2022-09-03T00:45:43;17.70;67.40
12446;DHT22;6287;50.984;7.022;2022-09-03T00:48:21;17.60;67.20
12446;DHT22;6287;50.984;7.022;2022-09-03T00:56:46;17.50;68.00
12446;DHT22;6287;50.984;7.022;2022-09-03T01:02:41;17.50;68.90
12446;DHT22;6287;50.984;7.022;2022-09-03T01:08:17;17.40;70.10
12446;DHT22;6287;50.984;7.022;2022-09-03T01:25:00;17.10;72.10
12446;DHT22;6287;50.984;7.022;2022-09-03T01:30:11;16.80;73.40
12446;DHT22;6287;50.984;7.022;2022-09-03T01:45:59;16.40;77.70
12446;DHT22;6287;50.984;7.022;2022-09-03T01:48:32;16.30;78.50
12446;DHT22;6287;50.984;7.022;2022-09-03T01:51:24;16.30;78.80
12446;DHT22;6287;50.984;7.022;2022-09-03T01:56:49;16.20;79.70
12446;DHT22;6287;50.984;7.022;2022-09-03T01:59:28;16.20;80.40
12446;DHT22;6287;50.984;7.022;2022-09-03T02:04:31;16.10;81.50
12446;DHT22;6287;50.984;7.022;2022-09-03T02:06:59;16.10;82.20
12446;DHT22;6287;50.984;7.022;2022-09-03T02:09:25;16.10;82.70
12446;DHT22;6287;50.984;7.022;2022-09-03T02:12:05;16.00;82.00
12446;DHT22;6287;50.984;7.022;2022-09-03T02:14:32;16.00;83.10
12446;DHT22;6287;50.984;7.022;2022-09-03T02:17:03;16.00;83.10
12446;DHT22;6287;50.984;7.022;2022-09-03T02:19:30;16.00;83.10
12446;DHT22;6287;50.984;7.022;2022-09-03T02:21:57;16.00;83.10
12446;DHT22;6287;50.984;7.022;2022-09-03T02:24:24;16.00;84.00
12446;DHT22;6287;50.984;7.022;2022-09-03T02:26:53;16.00;83.60
12446;DHT22;6287;50.984;7.022;2022-09-03T02:29:19;16.00;83.60
12446;DHT22;6287;50.984;7.022;2022-09-03T02:31:48;16.00;83.10
12446;DHT22;6287;50.984;7.022;2022-09-03T02:34:14;16.10;82.70
12446;DHT22;6287;50.984;7.022;2022-09-03T02:36:46;16.00;83.10
12446;DHT22;6287;50.984;7.022;2022-09-03T02:39:17;16.10;84.00
12446;DHT22;6287;50.984;7.022;2022-09-03T02:47:11;16.10;86.20
12446;DHT22;6287;50.984;7.022;2022-09-03T02:49:42;16.00;85.50
12446;DHT22;6287;50.984;7.022;2022-09-03T02:52:11;16.00;85.20
12446;DHT22;6287;50.984;7.022;2022-09-03T02:54:37;16.00;85.70
12446;DHT22;6287;50.984;7.022;2022-09-03T02:57:12;16.00;85.90
12446;DHT22;6287;50.984;7.022;2022-09-03T02:59:39;16.00;85.80
12446;DHT22;6287;50.984;7.022;2022-09-03T03:02:06;16.00;86.40
12446;DHT22;6287;50.984;7.022;2022-09-03T03:04:31;16.00;86.60
12446;DHT22;6287;50.984;7.022;2022-09-03T03:07:00;16.00;88.10
12446;DHT22;6287;50.984;7.022;2022-09-03T03:09:25;16.00;88.60
12446;DHT22;6287;50.984;7.022;2022-09-03T03:11:53;15.90;87.80
12446;DHT22;6287;50.984;7.022;2022-09-03T03:14:20;15.90;88.50
12446;DHT22;6287;50.984;7.022;2022-09-03T03:16:49;15.90;88.90
12446;DHT22;6287;50.984;7.022;2022-09-03T03:19:14;15.90;89.80
12446;DHT22;6287;50.984;7.022;2022-09-03T03:21:40;15.80;90.00
12446;DHT22;6287;50.984;7.022;2022-09-03T03:24:06;15.80;90.20
12446;DHT22;6287;50.984;7.022;2022-09-03T03:26:34;15.80;90.30
12446;DHT22;6287;50.984;7.022;2022-09-03T03:29:02;15.80;90.50
12446;DHT22;6287;50.984;7.022;2022-09-03T03:31:29;15.80;90.70
12446;DHT22;6287;50.984;7.022;2022-09-03T03:34:02;15.70;90.80
12446;DHT22;6287;50.984;7.022;2022-09-03T03:36:32;15.70;90.70
12446;DHT22;6287;50.984;7.022;2022-09-03T03:38:59;15.70;90.90
12446;DHT22;6287;50.984;7.022;2022-09-03T03:41:29;15.70;91.20
12446;DHT22;6287;50.984;7.022;2022-09-03T03:44:00;15.60;91.00
12446;DHT22;6287;50.984;7.022;2022-09-03T03:46:30;15.60;91.40
12446;DHT22;6287;50.984;7.022;2022-09-03T03:48:56;15.60;92.20
12446;DHT22;6287;50.984;7.022;2022-09-03T03:51:26;15.60;91.60
12446;DHT22;6287;50.984;7.022;2022-09-03T03:53:56;15.60;91.40
12446;DHT22;6287;50.984;7.022;2022-09-03T03:56:25;15.70;91.50
12446;DHT22;6287;50.984;7.022;2022-09-03T03:58:52;15.70;91.80
12446;DHT22;6287;50.984;7.022;2022-09-03T04:01:23;15.80;92.60
12446;DHT22;6287;50.984;7.022;2022-09-03T04:03:54;15.80;91.90
12446;DHT22;6287;50.984;7.022;2022-09-03T04:06:22;15.70;92.00
12446;DHT22;6287;50.984;7.022;2022-09-03T04:08:48;15.70;92.50
12446;DHT22;6287;50.984;7.022;2022-09-03T04:11:18;15.70;92.20
12446;DHT22;6287;50.984;7.022;2022-09-03T04:13:46;15.70;92.50
12446;DHT22;6287;50.984;7.022;2022-09-03T04:16:21;15.60;92.80
12446;DHT22;6287;50.984;7.022;2022-09-03T04:18:49;15.60;93.00
12446;DHT22;6287;50.984;7.022;2022-09-03T04:21:20;15.60;93.20
12446;DHT22;6287;50.984;7.022;2022-09-03T04:23:47;15.50;93.20
12446;DHT22;6287;50.984;7.022;2022-09-03T04:26:20;15.50;93.50
12446;DHT22;6287;50.984;7.022;2022-09-03T04:28:46;15.50;94.20
12446;DHT22;6287;50.984;7.022;2022-09-03T04:31:14;15.50;94.30
12446;DHT22;6287;50.984;7.022;2022-09-03T04:33:43;15.50;94.60
12446;DHT22;6287;50.984;7.022;2022-09-03T04:36:20;15.50;94.40
12446;DHT22;6287;50.984;7.022;2022-09-03T04:38:48;15.50;94.30
12446;DHT22;6287;50.984;7.022;2022-09-03T04:41:19;15.50;94.40
12446;DHT22;6287;50.984;7.022;2022-09-03T04:43:45;15.50;94.50
12446;DHT22;6287;50.984;7.022;2022-09-03T04:46:13;15.50;94.70
12446;DHT22;6287;50.984;7.022;2022-09-03T04:48:39;15.50;94.30
12446;DHT22;6287;50.984;7.022;2022-09-03T04:51:13;15.60;94.00
12446;DHT22;6287;50.984;7.022;2022-09-03T04:53:42;15.50;94.20
12446;DHT22;6287;50.984;7.022;2022-09-03T04:56:31;15.60;94.20
12446;DHT22;6287;50.984;7.022;2022-09-03T04:59:07;15.70;94.10
12446;DHT22;6287;50.984;7.022;2022-09-03T05:01:35;15.70;94.20
12446;DHT22;6287;50.984;7.022;2022-09-03T05:04:01;15.80;93.40
12446;DHT22;6287;50.984;7.022;2022-09-03T05:06:28;15.90;93.30
12446;DHT22;6287;50.984;7.022;2022-09-03T05:08:55;15.80;93.50
12446;DHT22;6287;50.984;7.022;2022-09-03T05:11:21;16.00;93.00
12446;DHT22;6287;50.984;7.022;2022-09-03T05:13:48;16.00;93.40
12446;DHT22;6287;50.984;7.022;2022-09-03T05:16:15;16.00;93.00
12446;DHT22;6287;50.984;7.022;2022-09-03T05:18:46;16.20;92.50
12446;DHT22;6287;50.984;7.022;2022-09-03T05:21:14;16.20;92.70
12446;DHT22;6287;50.984;7.022;2022-09-03T05:23:42;16.20;92.90
12446;DHT22;6287;50.984;7.022;2022-09-03T05:26:11;16.30;92.60
12446;DHT22;6287;50.984;7.022;2022-09-03T05:28:39;16.40;92.20
12446;DHT22;6287;50.984;7.022;2022-09-03T05:33:43;16.60;91.80
12446;DHT22;6287;50.984;7.022;2022-09-03T05:36:11;16.60;91.50
12446;DHT22;6287;50.984;7.022;2022-09-03T05:38:40;16.70;91.50
12446;DHT22;6287;50.984;7.022;2022-09-03T05:41:08;16.70;91.20
12446;DHT22;6287;50.984;7.022;2022-09-03T05:43:34;16.80;91.20
12446;DHT22;6287;50.984;7.022;2022-09-03T05:46:10;16.90;91.30
12446;DHT22;6287;50.984;7.022;2022-09-03T05:48:37;17.00;91.00
12446;DHT22;6287;50.984;7.022;2022-09-03T05:51:06;17.10;90.80
12446;DHT22;6287;50.984;7.022;2022-09-03T05:53:34;17.00;90.90
12446;DHT22;6287;50.984;7.022;2022-09-03T05:56:07;17.10;90.80
12446;DHT22;6287;50.984;7.022;2022-09-03T05:58:37;17.10;90.80
12446;DHT22;6287;50.984;7.022;2022-09-03T06:01:28;17.20;90.00
12446;DHT22;6287;50.984;7.022;2022-09-03T06:06:26;17.40;90.10
12446;DHT22;6287;50.984;7.022;2022-09-03T06:09:06;17.40;90.30
12446;DHT22;6287;50.984;7.022;2022-09-03T06:11:36;17.60;90.00
12446;DHT22;6287;50.984;7.022;2022-09-03T06:14:09;17.70;89.60
12446;DHT22;6287;50.984;7.022;2022-09-03T06:16:44;17.80;89.60
12446;DHT22;6287;50.984;7.022;2022-09-03T06:19:13;17.80;90.00
12446;DHT22;6287;50.984;7.022;2022-09-03T06:21:41;18.00;88.60
12446;DHT22;6287;50.984;7.022;2022-09-03T06:24:08;18.20;87.30
12446;DHT22;6287;50.984;7.022;2022-09-03T06:26:38;18.30;86.70
12446;DHT22;6287;50.984;7.022;2022-09-03T06:29:07;18.40;85.70
12446;DHT22;6287;50.984;7.022;2022-09-03T06:31:33;18.40;86.10
12446;DHT22;6287;50.984;7.022;2022-09-03T06:34:01;18.40;86.80
12446;DHT22;6287;50.984;7.022;2022-09-03T06:36:29;18.40;85.10
12446;DHT22;6287;50.984;7.022;2022-09-03T06:38:57;18.50;85.00
12446;DHT22;6287;50.984;7.022;2022-09-03T06:41:27;18.60;85.50
12446;DHT22;6287;50.984;7.022;2022-09-03T06:43:57;18.60;84.70
12446;DHT22;6287;50.984;7.022;2022-09-03T06:46:37;18.70;84.80
12446;DHT22;6287;50.984;7.022;2022-09-03T06:49:05;18.70;85.40
12446;DHT22;6287;50.984;7.022;2022-09-03T06:51:34;18.80;84.30
12446;DHT22;6287;50.984;7.022;2022-09-03T06:54:04;18.90;84.20
12446;DHT22;6287;50.984;7.022;2022-09-03T06:56:31;18.90;84.80
12446;DHT22;6287;50.984;7.022;2022-09-03T06:59:02;19.00;84.00
12446;DHT22;6287;50.984;7.022;2022-09-03T07:01:33;19.10;84.50
12446;DHT22;6287;50.984;7.022;2022-09-03T07:04:04;19.20;83.00
12446;DHT22;6287;50.984;7.022;2022-09-03T07:06:35;19.20;83.40
12446;DHT22;6287;50.984;7.022;2022-09-03T07:09:04;19.40;82.90
12446;DHT22;6287;50.984;7.022;2022-09-03T07:11:35;19.50;81.50
12446;DHT22;6287;50.984;7.022;2022-09-03T07:14:03;19.50;81.30
12446;DHT22;6287;50.984;7.022;2022-09-03T07:16:33;19.50;81.80
12446;DHT22;6287;50.984;7.022;2022-09-03T07:19:02;19.70;81.40
12446;DHT22;6287;50.984;7.022;2022-09-03T07:21:33;19.90;81.40
12446;DHT22;6287;50.984;7.022;2022-09-03T07:24:01;19.90;81.70
12446;DHT22;6287;50.984;7.022;2022-09-03T07:26:32;20.20;82.10
12446;DHT22;6287;50.984;7.022;2022-09-03T07:28:58;20.60;80.60
12446;DHT22;6287;50.984;7.022;2022-09-03T07:31:28;20.90;79.10
12446;DHT22;6287;50.984;7.022;2022-09-03T07:36:26;21.20;76.50
12446;DHT22;6287;50.984;7.022;2022-09-03T07:38:55;21.20;77.00
12446;DHT22;6287;50.984;7.022;2022-09-03T07:41:27;21.00;76.40
12446;DHT22;6287;50.984;7.022;2022-09-03T07:43:55;20.90;76.80
12446;DHT22;6287;50.984;7.022;2022-09-03T07:46:25;20.70;77.00
12446;DHT22;6287;50.984;7.022;2022-09-03T07:48:56;20.70;77.70
12446;DHT22;6287;50.984;7.022;2022-09-03T07:51:27;20.80;77.20
12446;DHT22;6287;50.984;7.022;2022-09-03T07:53:57;20.80;77.00
12446;DHT22;6287;50.984;7.022;2022-09-03T07:56:26;20.80;77.60
12446;DHT22;6287;50.984;7.022;2022-09-03T07:58:56;20.90;77.80
12446;DHT22;6287;50.984;7.022;2022-09-03T08:01:23;21.10;77.60
12446;DHT22;6287;50.984;7.022;2022-09-03T08:03:52;21.20;76.60
12446;DHT22;6287;50.984;7.022;2022-09-03T08:06:22;21.40;76.90
12446;DHT22;6287;50.984;7.022;2022-09-03T08:08:54;21.40;76.30
12446;DHT22;6287;50.984;7.022;2022-09-03T08:11:21;21.60;77.20
12446;DHT22;6287;50.984;7.022;2022-09-03T08:16:22;22.50;76.20
12446;DHT22;6287;50.984;7.022;2022-09-03T08:18:49;22.90;73.80
12446;DHT22;6287;50.984;7.022;2022-09-03T08:21:17;23.20;72.40
12446;DHT22;6287;50.984;7.022;2022-09-03T08:23:52;23.20;71.40
12446;DHT22;6287;50.984;7.022;2022-09-03T08:26:27;23.10;71.10
12446;DHT22;6287;50.984;7.022;2022-09-03T08:29:00;22.90;71.80
12446;DHT22;6287;50.984;7.022;2022-09-03T08:31:29;22.70;72.00
12446;DHT22;6287;50.984;7.022;2022-09-03T08:33:56;22.60;72.20
12446;DHT22;6287;50.984;7.022;2022-09-03T08:36:28;22.50;72.10
12446;DHT22;6287;50.984;7.022;2022-09-03T08:39:02;22.40;73.30
12446;DHT22;6287;50.984;7.022;2022-09-03T08:42:02;22.30;73.50
12446;DHT22;6287;50.984;7.022;2022-09-03T08:44:48;22.30;74.20
12446;DHT22;6287;50.984;7.022;2022-09-03T08:50:11;22.00;76.20
12446;DHT22;6287;50.984;7.022;2022-09-03T08:53:12;21.90;77.00
12446;DHT22;6287;50.984;7.022;2022-09-03T08:55:34;21.70;75.90
12446;DHT22;6287;50.984;7.022;2022-09-03T08:58:09;21.70;76.30
12446;DHT22;6287;50.984;7.022;2022-09-03T09:14:16;21.70;78.80
12446;DHT22;6287;50.984;7.022;2022-09-03T09:22:39;21.70;82.50
12446;DHT22;6287;50.984;7.022;2022-09-03T09:25:16;21.70;82.90
12446;DHT22;6287;50.984;7.022;2022-09-03T09:27:58;21.60;85.20
12446;DHT22;6287;50.984;7.022;2022-09-03T09:30:29;21.60;85.90
12446;DHT22;6287;50.984;7.022;2022-09-03T09:32:55;21.50;86.30
12446;DHT22;6287;50.984;7.022;2022-09-03T09:35:20;21.20;91.10
12446;DHT22;6287;50.984;7.022;2022-09-03T09:37:51;21.10;93.20
12446;DHT22;6287;50.984;7.022;2022-09-03T09:40:33;21.10;93.60
12446;DHT22;6287;50.984;7.022;2022-09-03T09:43:04;20.70;95.80
12446;DHT22;6287;50.984;7.022;2022-09-03T09:45:30;20.70;96.50
12446;DHT22;6287;50.984;7.022;2022-09-03T09:47:58;20.60;99.80
12446;DHT22;6287;50.984;7.022;2022-09-03T09:50:27;20.40;99.90
12446;DHT22;6287;50.984;7.022;2022-09-03T09:53:09;20.20;99.90
12446;DHT22;6287;50.984;7.022;2022-09-03T09:55:55;20.20;99.90
12446;DHT22;6287;50.984;7.022;2022-09-03T09:58:26;20.10;99.90
12446;DHT22;6287;50.984;7.022;2022-09-03T10:01:14;20.10;99.90
12446;DHT22;6287;50.984;7.022;2022-09-03T10:03:52;20.10;99.90
12446;DHT22;6287;50.984;7.022;2022-09-03T10:06:25;20.10;99.90
12446;DHT22;6287;50.984;7.022;2022-09-03T10:09:12;20.10;99.90
12446;DHT22;6287;50.984;7.022;2022-09-03T10:11:42;20.10;99.90
12446;DHT22;6287;50.984;7.022;2022-09-03T10:14:56;20.30;99.90
12446;DHT22;6287;50.984;7.022;2022-09-03T10:20:21;20.70;99.90
12446;DHT22;6287;50.984;7.022;2022-09-03T10:28:28;21.30;99.90
12446;DHT22;6287;50.984;7.022;2022-09-03T10:31:26;21.70;99.90
12446;DHT22;6287;50.984;7.022;2022-09-03T10:36:46;22.70;99.90
12446;DHT22;6287;50.984;7.022;2022-09-03T10:47:33;23.10;99.60
12446;DHT22;6287;50.984;7.022;2022-09-03T10:50:06;23.30;99.90
12446;DHT22;6287;50.984;7.022;2022-09-03T11:07:03;25.70;94.90
12446;DHT22;6287;50.984;7.022;2022-09-03T11:17:37;25.60;89.20
12446;DHT22;6287;50.984;7.022;2022-09-03T11:20:22;25.60;90.10
12446;DHT22;6287;50.984;7.022;2022-09-03T11:22:52;25.60;87.90
12446;DHT22;6287;50.984;7.022;2022-09-03T11:25:32;25.80;90.70
12446;DHT22;6287;50.984;7.022;2022-09-03T11:30:55;26.80;86.30
12446;DHT22;6287;50.984;7.022;2022-09-03T11:33:28;26.70;83.40
12446;DHT22;6287;50.984;7.022;2022-09-03T11:36:00;26.70;83.50
12446;DHT22;6287;50.984;7.022;2022-09-03T11:38:28;26.60;83.00
12446;DHT22;6287;50.984;7.022;2022-09-03T11:41:22;26.40;82.60
12446;DHT22;6287;50.984;7.022;2022-09-03T11:43:51;26.40;84.10
12446;DHT22;6287;50.984;7.022;2022-09-03T11:48:54;26.90;81.90
12446;DHT22;6287;50.984;7.022;2022-09-03T11:56:23;26.70;82.70
12446;DHT22;6287;50.984;7.022;2022-09-03T11:59:04;26.70;85.00
12446;DHT22;6287;50.984;7.022;2022-09-03T12:01:33;26.50;84.00
12446;DHT22;6287;50.984;7.022;2022-09-03T12:04:03;26.50;84.50
12446;DHT22;6287;50.984;7.022;2022-09-03T12:09:33;26.80;85.50
12446;DHT22;6287;50.984;7.022;2022-09-03T12:20:33;28.00;77.80
12446;DHT22;6287;50.984;7.022;2022-09-03T12:23:01;28.30;78.10
12446;DHT22;6287;50.984;7.022;2022-09-03T12:25:28;28.50;75.50
12446;DHT22;6287;50.984;7.022;2022-09-03T12:27:53;28.60;75.00
12446;DHT22;6287;50.984;7.022;2022-09-03T12:30:24;28.70;74.00
12446;DHT22;6287;50.984;7.022;2022-09-03T12:33:05;28.60;73.50
12446;DHT22;6287;50.984;7.022;2022-09-03T12:35:32;28.70;73.70
12446;DHT22;6287;50.984;7.022;2022-09-03T12:37:59;28.90;74.70
12446;DHT22;6287;50.984;7.022;2022-09-03T12:40:29;29.20;71.20
12446;DHT22;6287;50.984;7.022;2022-09-03T12:42:55;29.20;71.30
12446;DHT22;6287;50.984;7.022;2022-09-03T12:45:46;29.30;71.60
12446;DHT22;6287;50.984;7.022;2022-09-03T12:51:00;29.90;69.00
12446;DHT22;6287;50.984;7.022;2022-09-03T12:53:28;30.00;68.90
12446;DHT22;6287;50.984;7.022;2022-09-03T12:55:59;30.10;68.10
12446;DHT22;6287;50.984;7.022;2022-09-03T12:59:08;30.70;69.10
12446;DHT22;6287;50.984;7.022;2022-09-03T13:01:28;31.10;64.60
12446;DHT22;6287;50.984;7.022;2022-09-03T13:04:13;31.20;66.10
12446;DHT22;6287;50.984;7.022;2022-09-03T13:07:05;31.20;64.00
12446;DHT22;6287;50.984;7.022;2022-09-03T13:09:35;31.30;64.00
12446;DHT22;6287;50.984;7.022;2022-09-03T13:12:02;31.50;63.10
12446;DHT22;6287;50.984;7.022;2022-09-03T13:14:46;31.80;63.10
12446;DHT22;6287;50.984;7.022;2022-09-03T13:25:22;33.00;59.20
12446;DHT22;6287;50.984;7.022;2022-09-03T13:33:44;32.70;59.10
12446;DHT22;6287;50.984;7.022;2022-09-03T13:36:27;32.40;59.80
12446;DHT22;6287;50.984;7.022;2022-09-03T13:38:59;32.50;60.10
12446;DHT22;6287;50.984;7.022;2022-09-03T13:41:49;32.70;59.80
12446;DHT22;6287;50.984;7.022;2022-09-03T13:45:02;32.80;60.00
12446;DHT22;6287;50.984;7.022;2022-09-03T13:47:29;33.20;60.60
12446;DHT22;6287;50.984;7.022;2022-09-03T13:57:53;33.70;58.20
12446;DHT22;6287;50.984;7.022;2022-09-03T14:00:44;33.70;59.00
12446;DHT22;6287;50.984;7.022;2022-09-03T14:03:35;34.00;58.30
12446;DHT22;6287;50.984;7.022;2022-09-03T14:11:55;33.50;58.50
12446;DHT22;6287;50.984;7.022;2022-09-03T14:17:35;33.10;59.50
12446;DHT22;6287;50.984;7.022;2022-09-03T14:25:27;33.50;58.40
12446;DHT22;6287;50.984;7.022;2022-09-03T14:28:24;34.00;56.60
12446;DHT22;6287;50.984;7.022;2022-09-03T14:39:31;35.00;55.60
12446;DHT22;6287;50.984;7.022;2022-09-03T14:45:01;34.90;55.40
12446;DHT22;6287;50.984;7.022;2022-09-03T14:48:06;35.00;55.50
12446;DHT22;6287;50.984;7.022;2022-09-03T14:50:43;35.30;54.40
12446;DHT22;6287;50.984;7.022;2022-09-03T15:01:09;35.30;52.90
12446;DHT22;6287;50.984;7.022;2022-09-03T15:12:42;34.20;52.90
12446;DHT22;6287;50.984;7.022;2022-09-03T15:15:20;33.60;54.30
12446;DHT22;6287;50.984;7.022;2022-09-03T15:31:44;34.70;52.90
12446;DHT22;6287;50.984;7.022;2022-09-03T15:36:45;34.30;54.10
12446;DHT22;6287;50.984;7.022;2022-09-03T15:39:21;33.90;54.10
12446;DHT22;6287;50.984;7.022;2022-09-03T15:44:34;32.10;56.80
12446;DHT22;6287;50.984;7.022;2022-09-03T15:47:12;31.20;59.10
12446;DHT22;6287;50.984;7.022;2022-09-03T15:50:23;30.70;60.00
12446;DHT22;6287;50.984;7.022;2022-09-03T15:52:58;30.60;60.50
12446;DHT22;6287;50.984;7.022;2022-09-03T15:55:36;30.30;61.10
12446;DHT22;6287;50.984;7.022;2022-09-03T15:58:44;30.10;62.60
12446;DHT22;6287;50.984;7.022;2022-09-03T16:01:32;30.00;62.50
12446;DHT22;6287;50.984;7.022;2022-09-03T16:12:35;28.80;65.90
12446;DHT22;6287;50.984;7.022;2022-09-03T16:15:14;28.50;66.60
12446;DHT22;6287;50.984;7.022;2022-09-03T16:18:03;28.20;67.10
12446;DHT22;6287;50.984;7.022;2022-09-03T16:20:45;28.00;68.30
12446;DHT22;6287;50.984;7.022;2022-09-03T16:23:20;27.80;69.00
12446;DHT22;6287;50.984;7.022;2022-09-03T16:26:12;27.60;69.60
12446;DHT22;6287;50.984;7.022;2022-09-03T16:29:32;27.30;70.60
12446;DHT22;6287;50.984;7.022;2022-09-03T16:37:30;27.10;72.20
12446;DHT22;6287;50.984;7.022;2022-09-03T16:40:21;27.20;72.40
12446;DHT22;6287;50.984;7.022;2022-09-03T16:51:34;27.00;76.60
12446;DHT22;6287;50.984;7.022;2022-09-03T16:54:32;26.80;79.30
12446;DHT22;6287;50.984;7.022;2022-09-03T17:00:22;26.20;84.50
12446;DHT22;6287;50.984;7.022;2022-09-03T17:03:15;25.90;88.40
12446;DHT22;6287;50.984;7.022;2022-09-03T17:06:12;25.70;90.30
12446;DHT22;6287;50.984;7.022;2022-09-03T17:14:22;25.00;93.00
12446;DHT22;6287;50.984;7.022;2022-09-03T17:22:35;24.40;95.10
12446;DHT22;6287;50.984;7.022;2022-09-03T17:46:40;22.70;99.90
12446;DHT22;6287;50.984;7.022;2022-09-03T17:49:19;22.50;99.90
12446;DHT22;6287;50.984;7.022;2022-09-03T17:52:05;22.20;99.90
12446;DHT22;6287;50.984;7.022;2022-09-03T17:54:43;22.00;99.90
12446;DHT22;6287;50.984;7.022;2022-09-03T17:57:21;21.80;99.90
12446;DHT22;6287;50.984;7.022;2022-09-03T18:00:06;21.70;99.90
12446;DHT22;6287;50.984;7.022;2022-09-03T18:02:42;21.60;99.90
12446;DHT22;6287;50.984;7.022;2022-09-03T18:05:21;21.50;99.90
12446;DHT22;6287;50.984;7.022;2022-09-03T18:08:18;21.40;99.90
12446;DHT22;6287;50.984;7.022;2022-09-03T18:13:53;21.20;99.90
12446;DHT22;6287;50.984;7.022;2022-09-03T18:16:29;21.10;99.90
12446;DHT22;6287;50.984;7.022;2022-09-03T18:19:09;21.00;99.90
12446;DHT22;6287;50.984;7.022;2022-09-03T18:21:43;20.90;99.90
12446;DHT22;6287;50.984;7.022;2022-09-03T18:24:40;20.80;99.90
12446;DHT22;6287;50.984;7.022;2022-09-03T18:28:02;20.80;99.90
12446;DHT22;6287;50.984;7.022;2022-09-03T18:30:47;20.60;99.90
12446;DHT22;6287;50.984;7.022;2022-09-03T18:33:31;20.40;99.90
12446;DHT22;6287;50.984;7.022;2022-09-03T18:36:19;20.30;99.90
12446;DHT22;6287;50.984;7.022;2022-09-03T18:42:49;20.00;99.90
12446;DHT22;6287;50.984;7.022;2022-09-03T18:45:30;20.00;99.90
12446;DHT22;6287;50.984;7.022;2022-09-03T18:48:39;20.00;99.90
12446;DHT22;6287;50.984;7.022;2022-09-03T18:54:59;19.90;99.90
12446;DHT22;6287;50.984;7.022;2022-09-03T18:58:12;19.90;99.90
12446;DHT22;6287;50.984;7.022;2022-09-03T19:06:54;19.80;99.90
12446;DHT22;6287;50.984;7.022;2022-09-03T19:19:29;19.50;99.90
12446;DHT22;6287;50.984;7.022;2022-09-03T19:22:26;19.40;99.90
12446;DHT22;6287;50.984;7.022;2022-09-03T19:25:16;19.40;99.90
12446;DHT22;6287;50.984;7.022;2022-09-03T19:42:21;19.10;99.90
12446;DHT22;6287;50.984;7.022;2022-09-03T19:46:10;19.10;99.90
12446;DHT22;6287;50.984;7.022;2022-09-03T19:51:34;19.10;99.90
12446;DHT22;6287;50.984;7.022;2022-09-03T19:54:23;19.00;99.90
12446;DHT22;6287;50.984;7.022;2022-09-03T19:57:14;19.00;99.90
12446;DHT22;6287;50.984;7.022;2022-09-03T19:59:59;19.00;99.90
12446;DHT22;6287;50.984;7.022;2022-09-03T20:02:47;19.00;99.90
12446;DHT22;6287;50.984;7.022;2022-09-03T20:05:32;19.00;99.90
12446;DHT22;6287;50.984;7.022;2022-09-03T20:08:18;19.00;99.90
12446;DHT22;6287;50.984;7.022;2022-09-03T20:11:19;19.00;99.90
12446;DHT22;6287;50.984;7.022;2022-09-03T20:13:45;19.00;99.90
12446;DHT22;6287;50.984;7.022;2022-09-03T20:30:38;18.70;99.90
12446;DHT22;6287;50.984;7.022;2022-09-03T20:42:07;18.60;99.90
12446;DHT22;6287;50.984;7.022;2022-09-03T20:55:27;18.40;99.90
12446;DHT22;6287;50.984;7.022;2022-09-03T21:00:38;18.30;99.90
12446;DHT22;6287;50.984;7.022;2022-09-03T21:03:16;18.30;99.90
12446;DHT22;6287;50.984;7.022;2022-09-03T21:09:01;18.20;99.90
12446;DHT22;6287;50.984;7.022;2022-09-03T21:24:42;18.00;99.90
12446;DHT22;6287;50.984;7.022;2022-09-03T21:27:19;18.00;99.90
12446;DHT22;6287;50.984;7.022;2022-09-03T21:30:13;18.00;99.90
12446;DHT22;6287;50.984;7.022;2022-09-03T21:32:55;18.00;99.90
12446;DHT22;6287;50.984;7.022;2022-09-03T21:35:31;17.90;99.90
12446;DHT22;6287;50.984;7.022;2022-09-03T21:38:23;17.90;99.90
12446;DHT22;6287;50.984;7.022;2022-09-03T21:41:03;17.90;99.90
12446;DHT22;6287;50.984;7.022;2022-09-03T21:43:37;17.90;99.90
12446;DHT22;6287;50.984;7.022;2022-09-03T21:49:16;17.90;99.90
12446;DHT22;6287;50.984;7.022;2022-09-03T21:54:31;17.80;99.90
12446;DHT22;6287;50.984;7.022;2022-09-03T22:05:05;17.90;99.90
12446;DHT22;6287;50.984;7.022;2022-09-03T22:15:27;17.70;99.90
12446;DHT22;6287;50.984;7.022;2022-09-03T22:20:22;17.70;99.90
12446;DHT22;6287;50.984;7.022;2022-09-03T22:22:55;17.60;99.90
12446;DHT22;6287;50.984;7.022;2022-09-03T22:28:25;17.60;99.90
12446;DHT22;6287;50.984;7.022;2022-09-03T22:31:16;17.60;99.90
12446;DHT22;6287;50.984;7.022;2022-09-03T22:39:47;17.50;99.90
12446;DHT22;6287;50.984;7.022;2022-09-03T22:42:29;17.40;99.90
12446;DHT22;6287;50.984;7.022;2022-09-03T22:50:31;17.40;99.90
12446;DHT22;6287;50.984;7.022;2022-09-03T22:55:28;17.30;99.90
12446;DHT22;6287;50.984;7.022;2022-09-03T22:58:07;17.30;99.90
12446;DHT22;6287;50.984;7.022;2022-09-03T23:00:41;17.30;99.90
12446;DHT22;6287;50.984;7.022;2022-09-03T23:03:23;17.20;99.90
12446;DHT22;6287;50.984;7.022;2022-09-03T23:06:23;17.20;99.90
12446;DHT22;6287;50.984;7.022;2022-09-03T23:09:08;17.20;99.90
12446;DHT22;6287;50.984;7.022;2022-09-03T23:11:39;17.20;99.90
12446;DHT22;6287;50.984;7.022;2022-09-03T23:14:11;17.10;99.90
12446;DHT22;6287;50.984;7.022;2022-09-03T23:16:51;17.20;99.90
12446;DHT22;6287;50.984;7.022;2022-09-03T23:19:26;17.20;99.90
12446;DHT22;6287;50.984;7.022;2022-09-03T23:22:14;17.20;99.90
12446;DHT22;6287;50.984;7.022;2022-09-03T23:24:57;17.20;99.90
12446;DHT22;6287;50.984;7.022;2022-09-03T23:27:33;17.10;99.90
12446;DHT22;6287;50.984;7.022;2022-09-03T23:30:04;17.10;99.90
12446;DHT22;6287;50.984;7.022;2022-09-03T23:32:30;17.10;99.90
12446;DHT22;6287;50.984;7.022;2022-09-03T23:34:59;17.10;99.90
12446;DHT22;6287;50.984;7.022;2022-09-03T23:50:59;17.00;99.90
12446;DHT22;6287;50.984;7.022;2022-09-03T23:53:39;16.90;99.90
